sensor_id;sensor_type;location;lat;lon;timestamp;P1;durP1;ratioP1;P2;durP2;ratioP2
16775;SDS011;8505;49.456;8.164;2023-11-22T00:01:10;5.53;;;3.03;;
16775;SDS011;8505;49.456;8.164;2023-11-22T00:03:38;4.43;;;3.07;;
16775;SDS011;8505;49.456;8.164;2023-11-22T00:06:07;5.82;;;3.70;;
16775;SDS011;8505;49.456;8.164;2023-11-22T00:08:35;7.03;;;4.38;;
16775;SDS011;8505;49.456;8.164;2023-11-22T00:11:03;7.45;;;4.53;;
16775;SDS011;8505;49.456;8.164;2023-11-22T00:13:31;6.93;;;4.40;;
16775;SDS011;8505;49.456;8.164;2023-11-22T00:15:59;9.63;;;4.95;;
16775;SDS011;8505;49.456;8.164;2023-11-22T00:18:27;7.47;;;4.72;;
16775;SDS011;8505;49.456;8.164;2023-11-22T00:20:55;8.68;;;5.20;;
16775;SDS011;8505;49.456;8.164;2023-11-22T00:23:27;8.85;;;4.97;;
16775;SDS011;8505;49.456;8.164;2023-11-22T00:25:56;7.90;;;4.70;;
16775;SDS011;8505;49.456;8.164;2023-11-22T00:28:24;9.40;;;5.20;;
16775;SDS011;8505;49.456;8.164;2023-11-22T00:30:51;8.13;;;4.72;;
16775;SDS011;8505;49.456;8.164;2023-11-22T00:33:19;9.13;;;4.95;;
16775;SDS011;8505;49.456;8.164;2023-11-22T00:35:47;7.03;;;4.32;;
16775;SDS011;8505;49.456;8.164;2023-11-22T00:38:15;6.88;;;4.25;;
16775;SDS011;8505;49.456;8.164;2023-11-22T00:40:44;6.07;;;3.70;;
16775;SDS011;8505;49.456;8.164;2023-11-22T00:43:12;4.90;;;3.17;;
16775;SDS011;8505;49.456;8.164;2023-11-22T00:45:39;5.00;;;2.90;;
16775;SDS011;8505;49.456;8.164;2023-11-22T00:48:07;4.40;;;2.78;;
16775;SDS011;8505;49.456;8.164;2023-11-22T00:50:35;4.73;;;2.50;;
16775;SDS011;8505;49.456;8.164;2023-11-22T00:53:03;4.53;;;2.35;;
16775;SDS011;8505;49.456;8.164;2023-11-22T00:55:31;5.63;;;2.50;;
16775;SDS011;8505;49.456;8.164;2023-11-22T00:58:00;3.25;;;2.30;;
16775;SDS011;8505;49.456;8.164;2023-11-22T01:00:30;4.77;;;2.47;;
16775;SDS011;8505;49.456;8.164;2023-11-22T01:02:58;3.45;;;2.28;;
16775;SDS011;8505;49.456;8.164;2023-11-22T01:05:26;3.75;;;2.33;;
16775;SDS011;8505;49.456;8.164;2023-11-22T01:07:53;3.33;;;2.25;;
16775;SDS011;8505;49.456;8.164;2023-11-22T01:10:21;3.50;;;2.20;;
16775;SDS011;8505;49.456;8.164;2023-11-22T01:12:49;3.53;;;2.20;;
16775;SDS011;8505;49.456;8.164;2023-11-22T01:15:18;3.20;;;2.03;;
16775;SDS011;8505;49.456;8.164;2023-11-22T01:17:46;3.92;;;2.00;;
16775;SDS011;8505;49.456;8.164;2023-11-22T01:20:13;3.40;;;1.80;;
16775;SDS011;8505;49.456;8.164;2023-11-22T01:22:41;2.97;;;1.90;;
16775;SDS011;8505;49.456;8.164;2023-11-22T01:25:09;2.90;;;1.90;;
16775;SDS011;8505;49.456;8.164;2023-11-22T01:27:37;3.90;;;2.20;;
16775;SDS011;8505;49.456;8.164;2023-11-22T01:30:05;3.75;;;2.00;;
16775;SDS011;8505;49.456;8.164;2023-11-22T01:32:35;3.95;;;2.10;;
16775;SDS011;8505;49.456;8.164;2023-11-22T01:35:03;2.80;;;1.85;;
16775;SDS011;8505;49.456;8.164;2023-11-22T01:37:32;3.43;;;2.10;;
16775;SDS011;8505;49.456;8.164;2023-11-22T01:40:00;4.30;;;2.40;;
16775;SDS011;8505;49.456;8.164;2023-11-22T01:42:29;3.63;;;1.98;;
16775;SDS011;8505;49.456;8.164;2023-11-22T01:44:57;4.27;;;2.03;;
16775;SDS011;8505;49.456;8.164;2023-11-22T01:47:24;3.67;;;1.90;;
16775;SDS011;8505;49.456;8.164;2023-11-22T01:49:54;6.85;;;3.05;;
16775;SDS011;8505;49.456;8.164;2023-11-22T01:52:23;5.05;;;2.88;;
16775;SDS011;8505;49.456;8.164;2023-11-22T01:54:51;6.55;;;3.13;;
16775;SDS011;8505;49.456;8.164;2023-11-22T01:57:19;6.10;;;2.78;;
16775;SDS011;8505;49.456;8.164;2023-11-22T01:59:47;5.57;;;2.50;;
16775;SDS011;8505;49.456;8.164;2023-11-22T02:02:15;4.77;;;2.53;;
16775;SDS011;8505;49.456;8.164;2023-11-22T02:04:43;5.03;;;2.20;;
16775;SDS011;8505;49.456;8.164;2023-11-22T02:07:12;4.00;;;2.00;;
16775;SDS011;8505;49.456;8.164;2023-11-22T02:09:40;4.80;;;2.23;;
16775;SDS011;8505;49.456;8.164;2023-11-22T02:12:08;3.40;;;2.17;;
16775;SDS011;8505;49.456;8.164;2023-11-22T02:14:36;5.97;;;2.70;;
16775;SDS011;8505;49.456;8.164;2023-11-22T02:17:04;4.38;;;2.40;;
16775;SDS011;8505;49.456;8.164;2023-11-22T02:19:31;4.35;;;2.60;;
16775;SDS011;8505;49.456;8.164;2023-11-22T02:21:59;5.10;;;3.15;;
16775;SDS011;8505;49.456;8.164;2023-11-22T02:24:29;3.55;;;2.50;;
16775;SDS011;8505;49.456;8.164;2023-11-22T02:26:59;4.85;;;2.83;;
16775;SDS011;8505;49.456;8.164;2023-11-22T02:29:27;4.57;;;2.58;;
16775;SDS011;8505;49.456;8.164;2023-11-22T02:31:55;7.57;;;3.20;;
16775;SDS011;8505;49.456;8.164;2023-11-22T02:34:23;5.90;;;3.50;;
16775;SDS011;8505;49.456;8.164;2023-11-22T02:36:51;6.07;;;3.50;;
16775;SDS011;8505;49.456;8.164;2023-11-22T02:39:35;6.03;;;3.53;;
16775;SDS011;8505;49.456;8.164;2023-11-22T02:42:15;6.15;;;3.30;;
16775;SDS011;8505;49.456;8.164;2023-11-22T02:44:43;6.32;;;3.67;;
16775;SDS011;8505;49.456;8.164;2023-11-22T02:47:11;5.82;;;3.35;;
16775;SDS011;8505;49.456;8.164;2023-11-22T02:49:38;6.68;;;3.58;;
16775;SDS011;8505;49.456;8.164;2023-11-22T02:52:06;7.78;;;4.05;;
16775;SDS011;8505;49.456;8.164;2023-11-22T02:54:35;8.27;;;4.13;;
16775;SDS011;8505;49.456;8.164;2023-11-22T02:57:03;6.80;;;3.83;;
16775;SDS011;8505;49.456;8.164;2023-11-22T02:59:31;6.47;;;3.65;;
16775;SDS011;8505;49.456;8.164;2023-11-22T03:01:58;6.35;;;3.90;;
16775;SDS011;8505;49.456;8.164;2023-11-22T03:04:28;8.80;;;4.13;;
16775;SDS011;8505;49.456;8.164;2023-11-22T03:06:55;6.40;;;4.05;;
16775;SDS011;8505;49.456;8.164;2023-11-22T03:09:23;7.63;;;4.30;;
16775;SDS011;8505;49.456;8.164;2023-11-22T03:11:54;8.23;;;4.60;;
16775;SDS011;8505;49.456;8.164;2023-11-22T03:14:22;9.53;;;4.70;;
16775;SDS011;8505;49.456;8.164;2023-11-22T03:16:49;9.40;;;4.82;;
16775;SDS011;8505;49.456;8.164;2023-11-22T03:19:17;7.43;;;4.50;;
16775;SDS011;8505;49.456;8.164;2023-11-22T03:21:46;8.63;;;4.40;;
16775;SDS011;8505;49.456;8.164;2023-11-22T03:24:14;7.45;;;4.47;;
16775;SDS011;8505;49.456;8.164;2023-11-22T03:26:42;8.70;;;4.83;;
16775;SDS011;8505;49.456;8.164;2023-11-22T03:29:12;9.70;;;5.10;;
16775;SDS011;8505;49.456;8.164;2023-11-22T03:31:42;8.95;;;4.95;;
16775;SDS011;8505;49.456;8.164;2023-11-22T03:34:10;7.93;;;4.60;;
16775;SDS011;8505;49.456;8.164;2023-11-22T03:36:39;6.97;;;4.43;;
16775;SDS011;8505;49.456;8.164;2023-11-22T03:39:07;8.57;;;4.40;;
16775;SDS011;8505;49.456;8.164;2023-11-22T03:41:36;6.68;;;4.18;;
16775;SDS011;8505;49.456;8.164;2023-11-22T03:44:04;7.20;;;4.20;;
16775;SDS011;8505;49.456;8.164;2023-11-22T03:46:36;8.20;;;3.85;;
16775;SDS011;8505;49.456;8.164;2023-11-22T03:49:04;7.30;;;4.20;;
16775;SDS011;8505;49.456;8.164;2023-11-22T03:51:33;6.80;;;4.30;;
16775;SDS011;8505;49.456;8.164;2023-11-22T03:54:00;6.97;;;3.80;;
16775;SDS011;8505;49.456;8.164;2023-11-22T03:56:28;7.27;;;4.20;;
16775;SDS011;8505;49.456;8.164;2023-11-22T03:58:56;7.07;;;4.10;;
16775;SDS011;8505;49.456;8.164;2023-11-22T04:01:24;5.95;;;3.92;;
16775;SDS011;8505;49.456;8.164;2023-11-22T04:03:53;7.82;;;4.30;;
16775;SDS011;8505;49.456;8.164;2023-11-22T04:06:21;6.93;;;4.10;;
16775;SDS011;8505;49.456;8.164;2023-11-22T04:08:49;6.82;;;4.18;;
16775;SDS011;8505;49.456;8.164;2023-11-22T04:11:19;6.90;;;3.80;;
16775;SDS011;8505;49.456;8.164;2023-11-22T04:13:47;7.13;;;4.00;;
16775;SDS011;8505;49.456;8.164;2023-11-22T04:16:15;7.10;;;4.35;;
16775;SDS011;8505;49.456;8.164;2023-11-22T04:18:43;7.10;;;3.70;;
16775;SDS011;8505;49.456;8.164;2023-11-22T04:21:13;6.63;;;4.00;;
16775;SDS011;8505;49.456;8.164;2023-11-22T04:23:40;7.70;;;4.15;;
16775;SDS011;8505;49.456;8.164;2023-11-22T04:26:08;7.05;;;3.97;;
16775;SDS011;8505;49.456;8.164;2023-11-22T04:28:36;6.60;;;3.90;;
16775;SDS011;8505;49.456;8.164;2023-11-22T04:31:04;7.13;;;3.90;;
16775;SDS011;8505;49.456;8.164;2023-11-22T04:33:35;10.90;;;4.20;;
16775;SDS011;8505;49.456;8.164;2023-11-22T04:36:04;6.68;;;3.80;;
16775;SDS011;8505;49.456;8.164;2023-11-22T04:38:34;6.80;;;4.00;;
16775;SDS011;8505;49.456;8.164;2023-11-22T04:41:02;6.97;;;4.10;;
16775;SDS011;8505;49.456;8.164;2023-11-22T04:43:30;8.30;;;4.13;;
16775;SDS011;8505;49.456;8.164;2023-11-22T04:45:57;6.53;;;3.85;;
16775;SDS011;8505;49.456;8.164;2023-11-22T04:48:25;6.27;;;4.00;;
16775;SDS011;8505;49.456;8.164;2023-11-22T04:50:53;5.97;;;3.55;;
16775;SDS011;8505;49.456;8.164;2023-11-22T04:53:20;5.93;;;3.58;;
16775;SDS011;8505;49.456;8.164;2023-11-22T04:55:49;6.35;;;3.72;;
16775;SDS011;8505;49.456;8.164;2023-11-22T04:58:17;8.48;;;3.88;;
16775;SDS011;8505;49.456;8.164;2023-11-22T05:00:45;7.97;;;4.07;;
16775;SDS011;8505;49.456;8.164;2023-11-22T05:03:13;7.05;;;4.10;;
16775;SDS011;8505;49.456;8.164;2023-11-22T05:05:40;5.87;;;4.00;;
16775;SDS011;8505;49.456;8.164;2023-11-22T05:08:08;6.10;;;4.05;;
16775;SDS011;8505;49.456;8.164;2023-11-22T05:10:36;6.90;;;4.00;;
16775;SDS011;8505;49.456;8.164;2023-11-22T05:13:05;7.15;;;4.10;;
16775;SDS011;8505;49.456;8.164;2023-11-22T05:15:33;7.32;;;4.30;;
16775;SDS011;8505;49.456;8.164;2023-11-22T05:18:01;6.28;;;4.10;;
16775;SDS011;8505;49.456;8.164;2023-11-22T05:20:28;8.15;;;4.20;;
16775;SDS011;8505;49.456;8.164;2023-11-22T05:22:56;6.03;;;3.85;;
16775;SDS011;8505;49.456;8.164;2023-11-22T05:25:24;8.15;;;4.10;;
16775;SDS011;8505;49.456;8.164;2023-11-22T05:27:52;6.95;;;4.20;;
16775;SDS011;8505;49.456;8.164;2023-11-22T05:30:21;7.13;;;3.95;;
16775;SDS011;8505;49.456;8.164;2023-11-22T05:32:48;7.07;;;4.10;;
16775;SDS011;8505;49.456;8.164;2023-11-22T05:35:16;1.10;;;0.40;;
16775;SDS011;8505;49.456;8.164;2023-11-22T05:37:46;1.20;;;0.80;;
16775;SDS011;8505;49.456;8.164;2023-11-22T05:40:13;1.35;;;0.90;;
16775;SDS011;8505;49.456;8.164;2023-11-22T05:42:42;1.92;;;0.90;;
16775;SDS011;8505;49.456;8.164;2023-11-22T05:45:10;1.00;;;0.75;;
16775;SDS011;8505;49.456;8.164;2023-11-22T05:47:39;0.65;;;0.52;;
16775;SDS011;8505;49.456;8.164;2023-11-22T05:50:09;0.73;;;0.43;;
16775;SDS011;8505;49.456;8.164;2023-11-22T05:52:37;1.00;;;0.40;;
16775;SDS011;8505;49.456;8.164;2023-11-22T05:55:05;0.98;;;0.50;;
16775;SDS011;8505;49.456;8.164;2023-11-22T05:57:34;0.17;;;0.15;;
16775;SDS011;8505;49.456;8.164;2023-11-22T06:00:02;0.95;;;0.85;;
16775;SDS011;8505;49.456;8.164;2023-11-22T06:02:32;0.20;;;0.20;;
16775;SDS011;8505;49.456;8.164;2023-11-22T06:05:01;0.32;;;0.32;;
16775;SDS011;8505;49.456;8.164;2023-11-22T06:07:29;2.83;;;0.83;;
16775;SDS011;8505;49.456;8.164;2023-11-22T06:09:56;0.30;;;0.30;;
16775;SDS011;8505;49.456;8.164;2023-11-22T06:12:24;2.00;;;0.80;;
16775;SDS011;8505;49.456;8.164;2023-11-22T06:14:52;0.75;;;0.65;;
16775;SDS011;8505;49.456;8.164;2023-11-22T06:17:19;0.80;;;0.50;;
16775;SDS011;8505;49.456;8.164;2023-11-22T06:19:47;2.00;;;0.77;;
16775;SDS011;8505;49.456;8.164;2023-11-22T06:22:16;3.22;;;0.75;;
16775;SDS011;8505;49.456;8.164;2023-11-22T06:24:45;2.10;;;0.60;;
16775;SDS011;8505;49.456;8.164;2023-11-22T06:27:14;1.27;;;0.38;;
16775;SDS011;8505;49.456;8.164;2023-11-22T06:29:42;1.30;;;0.77;;
16775;SDS011;8505;49.456;8.164;2023-11-22T06:32:10;0.10;;;0.10;;
16775;SDS011;8505;49.456;8.164;2023-11-22T06:34:38;1.58;;;0.73;;
16775;SDS011;8505;49.456;8.164;2023-11-22T06:37:06;0.20;;;0.20;;
16775;SDS011;8505;49.456;8.164;2023-11-22T06:39:36;1.83;;;1.00;;
16775;SDS011;8505;49.456;8.164;2023-11-22T06:42:04;1.37;;;0.77;;
16775;SDS011;8505;49.456;8.164;2023-11-22T06:44:32;0.90;;;0.50;;
16775;SDS011;8505;49.456;8.164;2023-11-22T06:47:00;1.20;;;0.70;;
16775;SDS011;8505;49.456;8.164;2023-11-22T06:49:29;0.87;;;0.67;;
16775;SDS011;8505;49.456;8.164;2023-11-22T06:51:56;1.70;;;0.90;;
16775;SDS011;8505;49.456;8.164;2023-11-22T06:54:24;0.65;;;0.40;;
16775;SDS011;8505;49.456;8.164;2023-11-22T06:56:53;0.85;;;0.38;;
16775;SDS011;8505;49.456;8.164;2023-11-22T06:59:21;0.75;;;0.55;;
16775;SDS011;8505;49.456;8.164;2023-11-22T07:01:49;2.40;;;1.10;;
16775;SDS011;8505;49.456;8.164;2023-11-22T07:04:16;0.10;;;0.10;;
16775;SDS011;8505;49.456;8.164;2023-11-22T07:06:44;0.13;;;0.13;;
16775;SDS011;8505;49.456;8.164;2023-11-22T07:09:11;0.13;;;0.13;;
16775;SDS011;8505;49.456;8.164;2023-11-22T07:11:40;0.35;;;0.35;;
16775;SDS011;8505;49.456;8.164;2023-11-22T07:14:11;1.13;;;0.57;;
16775;SDS011;8505;49.456;8.164;2023-11-22T07:16:40;2.90;;;1.10;;
16775;SDS011;8505;49.456;8.164;2023-11-22T07:19:08;0.50;;;0.38;;
16775;SDS011;8505;49.456;8.164;2023-11-22T07:21:35;0.50;;;0.40;;
16775;SDS011;8505;49.456;8.164;2023-11-22T07:24:04;4.35;;;1.65;;
16775;SDS011;8505;49.456;8.164;2023-11-22T07:26:33;0.50;;;0.40;;
16775;SDS011;8505;49.456;8.164;2023-11-22T07:29:01;1.50;;;0.83;;
16775;SDS011;8505;49.456;8.164;2023-11-22T07:31:30;1.20;;;0.70;;
16775;SDS011;8505;49.456;8.164;2023-11-22T07:33:58;1.10;;;0.30;;
16775;SDS011;8505;49.456;8.164;2023-11-22T07:36:27;1.35;;;0.73;;
16775;SDS011;8505;49.456;8.164;2023-11-22T07:38:57;1.40;;;0.30;;
16775;SDS011;8505;49.456;8.164;2023-11-22T07:41:25;6.78;;;1.48;;
16775;SDS011;8505;49.456;8.164;2023-11-22T07:43:53;1.15;;;0.65;;
16775;SDS011;8505;49.456;8.164;2023-11-22T07:46:21;2.00;;;1.00;;
16775;SDS011;8505;49.456;8.164;2023-11-22T07:48:50;1.05;;;0.98;;
16775;SDS011;8505;49.456;8.164;2023-11-22T07:51:18;0.70;;;0.35;;
16775;SDS011;8505;49.456;8.164;2023-11-22T07:53:45;1.80;;;0.50;;
16775;SDS011;8505;49.456;8.164;2023-11-22T07:56:13;4.25;;;1.42;;
16775;SDS011;8505;49.456;8.164;2023-11-22T07:58:43;3.10;;;1.10;;
16775;SDS011;8505;49.456;8.164;2023-11-22T08:01:11;1.40;;;0.60;;
16775;SDS011;8505;49.456;8.164;2023-11-22T08:03:40;3.42;;;1.38;;
16775;SDS011;8505;49.456;8.164;2023-11-22T08:06:13;2.47;;;1.02;;
16775;SDS011;8505;49.456;8.164;2023-11-22T08:08:41;1.42;;;0.60;;
16775;SDS011;8505;49.456;8.164;2023-11-22T08:11:08;2.28;;;0.95;;
16775;SDS011;8505;49.456;8.164;2023-11-22T08:13:41;3.70;;;0.80;;
16775;SDS011;8505;49.456;8.164;2023-11-22T08:16:11;2.67;;;1.17;;
16775;SDS011;8505;49.456;8.164;2023-11-22T08:18:39;2.65;;;1.10;;
16775;SDS011;8505;49.456;8.164;2023-11-22T08:21:09;2.30;;;1.02;;
16775;SDS011;8505;49.456;8.164;2023-11-22T08:23:38;0.98;;;0.65;;
16775;SDS011;8505;49.456;8.164;2023-11-22T08:26:06;2.20;;;0.80;;
16775;SDS011;8505;49.456;8.164;2023-11-22T08:28:35;2.25;;;1.08;;
16775;SDS011;8505;49.456;8.164;2023-11-22T08:31:02;0.35;;;0.35;;
16775;SDS011;8505;49.456;8.164;2023-11-22T08:33:35;1.90;;;0.83;;
16775;SDS011;8505;49.456;8.164;2023-11-22T08:36:03;1.00;;;0.60;;
16775;SDS011;8505;49.456;8.164;2023-11-22T08:38:32;1.73;;;0.87;;
16775;SDS011;8505;49.456;8.164;2023-11-22T08:41:02;1.98;;;1.00;;
16775;SDS011;8505;49.456;8.164;2023-11-22T08:43:31;2.30;;;1.20;;
16775;SDS011;8505;49.456;8.164;2023-11-22T08:45:59;1.47;;;0.73;;
16775;SDS011;8505;49.456;8.164;2023-11-22T08:48:40;1.58;;;0.88;;
16775;SDS011;8505;49.456;8.164;2023-11-22T08:51:09;0.70;;;0.50;;
16775;SDS011;8505;49.456;8.164;2023-11-22T08:53:38;1.80;;;0.73;;
16775;SDS011;8505;49.456;8.164;2023-11-22T08:56:07;2.05;;;0.93;;
16775;SDS011;8505;49.456;8.164;2023-11-22T08:58:36;1.40;;;0.77;;
16775;SDS011;8505;49.456;8.164;2023-11-22T09:01:04;1.08;;;0.80;;
16775;SDS011;8505;49.456;8.164;2023-11-22T09:03:33;0.33;;;0.33;;
16775;SDS011;8505;49.456;8.164;2023-11-22T09:06:01;1.02;;;0.80;;
16775;SDS011;8505;49.456;8.164;2023-11-22T09:08:29;2.55;;;0.90;;
16775;SDS011;8505;49.456;8.164;2023-11-22T09:10:57;0.45;;;0.32;;
16775;SDS011;8505;49.456;8.164;2023-11-22T09:13:26;3.60;;;1.63;;
16775;SDS011;8505;49.456;8.164;2023-11-22T09:15:56;1.42;;;0.52;;
16775;SDS011;8505;49.456;8.164;2023-11-22T09:18:23;0.10;;;0.10;;
16775;SDS011;8505;49.456;8.164;2023-11-22T09:20:51;0.55;;;0.45;;
16775;SDS011;8505;49.456;8.164;2023-11-22T09:23:20;1.67;;;0.60;;
16775;SDS011;8505;49.456;8.164;2023-11-22T09:25:47;1.15;;;0.57;;
16775;SDS011;8505;49.456;8.164;2023-11-22T09:28:17;3.38;;;0.70;;
16775;SDS011;8505;49.456;8.164;2023-11-22T09:30:47;1.60;;;0.80;;
16775;SDS011;8505;49.456;8.164;2023-11-22T09:33:15;1.13;;;0.68;;
16775;SDS011;8505;49.456;8.164;2023-11-22T09:35:45;0.00;;;0.00;;
16775;SDS011;8505;49.456;8.164;2023-11-22T09:38:15;1.95;;;1.05;;
16775;SDS011;8505;49.456;8.164;2023-11-22T09:40:43;2.00;;;0.80;;
16775;SDS011;8505;49.456;8.164;2023-11-22T09:43:12;0.80;;;0.45;;
16775;SDS011;8505;49.456;8.164;2023-11-22T09:45:44;1.02;;;0.52;;
16775;SDS011;8505;49.456;8.164;2023-11-22T09:48:15;0.63;;;0.63;;
16775;SDS011;8505;49.456;8.164;2023-11-22T09:50:47;1.30;;;0.65;;
16775;SDS011;8505;49.456;8.164;2023-11-22T09:53:22;1.00;;;0.50;;
16775;SDS011;8505;49.456;8.164;2023-11-22T09:55:58;1.77;;;0.85;;
16775;SDS011;8505;49.456;8.164;2023-11-22T09:58:26;1.50;;;0.60;;
16775;SDS011;8505;49.456;8.164;2023-11-22T10:00:58;2.25;;;1.17;;
16775;SDS011;8505;49.456;8.164;2023-11-22T10:03:28;0.82;;;0.35;;
16775;SDS011;8505;49.456;8.164;2023-11-22T10:05:56;3.03;;;0.67;;
16775;SDS011;8505;49.456;8.164;2023-11-22T10:08:25;0.57;;;0.30;;
16775;SDS011;8505;49.456;8.164;2023-11-22T10:10:53;1.23;;;0.32;;
16775;SDS011;8505;49.456;8.164;2023-11-22T10:13:21;0.70;;;0.55;;
16775;SDS011;8505;49.456;8.164;2023-11-22T10:15:49;0.17;;;0.17;;
16775;SDS011;8505;49.456;8.164;2023-11-22T10:18:19;3.42;;;2.67;;
16775;SDS011;8505;49.456;8.164;2023-11-22T10:20:49;1.35;;;0.90;;
16775;SDS011;8505;49.456;8.164;2023-11-22T10:23:18;1.10;;;0.55;;
16775;SDS011;8505;49.456;8.164;2023-11-22T10:25:52;1.95;;;1.05;;
16775;SDS011;8505;49.456;8.164;2023-11-22T10:28:20;1.85;;;0.75;;
16775;SDS011;8505;49.456;8.164;2023-11-22T10:30:50;0.17;;;0.17;;
16775;SDS011;8505;49.456;8.164;2023-11-22T10:33:18;2.05;;;0.75;;
16775;SDS011;8505;49.456;8.164;2023-11-22T10:35:51;0.98;;;0.68;;
16775;SDS011;8505;49.456;8.164;2023-11-22T10:38:20;3.78;;;0.82;;
16775;SDS011;8505;49.456;8.164;2023-11-22T10:40:48;1.92;;;1.10;;
16775;SDS011;8505;49.456;8.164;2023-11-22T10:43:18;2.33;;;1.23;;
16775;SDS011;8505;49.456;8.164;2023-11-22T10:45:49;0.60;;;0.40;;
16775;SDS011;8505;49.456;8.164;2023-11-22T10:48:20;0.90;;;0.60;;
16775;SDS011;8505;49.456;8.164;2023-11-22T10:50:48;1.90;;;0.90;;
16775;SDS011;8505;49.456;8.164;2023-11-22T10:53:21;1.50;;;0.80;;
16775;SDS011;8505;49.456;8.164;2023-11-22T10:55:53;0.75;;;0.63;;
16775;SDS011;8505;49.456;8.164;2023-11-22T10:58:30;1.60;;;1.00;;
16775;SDS011;8505;49.456;8.164;2023-11-22T11:01:00;1.60;;;0.90;;
16775;SDS011;8505;49.456;8.164;2023-11-22T11:03:34;2.10;;;1.00;;
16775;SDS011;8505;49.456;8.164;2023-11-22T11:06:08;0.50;;;0.50;;
16775;SDS011;8505;49.456;8.164;2023-11-22T11:08:41;2.05;;;0.30;;
16775;SDS011;8505;49.456;8.164;2023-11-22T11:11:11;0.80;;;0.40;;
16775;SDS011;8505;49.456;8.164;2023-11-22T11:13:41;1.20;;;0.20;;
16775;SDS011;8505;49.456;8.164;2023-11-22T11:16:09;0.70;;;0.30;;
16775;SDS011;8505;49.456;8.164;2023-11-22T11:18:38;0.70;;;0.40;;
16775;SDS011;8505;49.456;8.164;2023-11-22T11:21:07;0.90;;;0.80;;
16775;SDS011;8505;49.456;8.164;2023-11-22T11:23:38;1.10;;;0.20;;
16775;SDS011;8505;49.456;8.164;2023-11-22T11:26:15;0.82;;;0.57;;
16775;SDS011;8505;49.456;8.164;2023-11-22T11:28:46;0.50;;;0.27;;
16775;SDS011;8505;49.456;8.164;2023-11-22T11:31:15;2.28;;;0.85;;
16775;SDS011;8505;49.456;8.164;2023-11-22T11:33:53;0.10;;;0.10;;
16775;SDS011;8505;49.456;8.164;2023-11-22T11:36:23;0.90;;;0.50;;
16775;SDS011;8505;49.456;8.164;2023-11-22T11:38:51;1.42;;;0.57;;
16775;SDS011;8505;49.456;8.164;2023-11-22T11:41:25;1.20;;;0.70;;
16775;SDS011;8505;49.456;8.164;2023-11-22T11:43:55;0.35;;;0.35;;
16775;SDS011;8505;49.456;8.164;2023-11-22T11:46:23;2.03;;;1.00;;
16775;SDS011;8505;49.456;8.164;2023-11-22T11:48:53;0.30;;;0.30;;
16775;SDS011;8505;49.456;8.164;2023-11-22T11:51:22;4.15;;;1.13;;
16775;SDS011;8505;49.456;8.164;2023-11-22T11:53:51;1.83;;;0.57;;
16775;SDS011;8505;49.456;8.164;2023-11-22T11:56:19;1.00;;;0.50;;
16775;SDS011;8505;49.456;8.164;2023-11-22T11:58:49;2.00;;;1.90;;
16775;SDS011;8505;49.456;8.164;2023-11-22T12:01:17;1.08;;;0.73;;
16775;SDS011;8505;49.456;8.164;2023-11-22T12:03:46;0.30;;;0.30;;
16775;SDS011;8505;49.456;8.164;2023-11-22T12:06:18;1.00;;;0.70;;
16775;SDS011;8505;49.456;8.164;2023-11-22T12:08:47;1.95;;;0.88;;
16775;SDS011;8505;49.456;8.164;2023-11-22T12:11:15;1.83;;;0.93;;
16775;SDS011;8505;49.456;8.164;2023-11-22T12:13:44;1.10;;;0.82;;
16775;SDS011;8505;49.456;8.164;2023-11-22T12:16:16;2.77;;;0.53;;
16775;SDS011;8505;49.456;8.164;2023-11-22T12:18:45;0.55;;;0.40;;
16775;SDS011;8505;49.456;8.164;2023-11-22T12:21:15;1.20;;;0.43;;
16775;SDS011;8505;49.456;8.164;2023-11-22T12:23:45;1.10;;;0.88;;
16775;SDS011;8505;49.456;8.164;2023-11-22T12:26:15;2.50;;;0.50;;
16775;SDS011;8505;49.456;8.164;2023-11-22T12:28:45;0.60;;;0.45;;
16775;SDS011;8505;49.456;8.164;2023-11-22T12:31:30;2.10;;;0.50;;
16775;SDS011;8505;49.456;8.164;2023-11-22T12:34:02;0.40;;;0.40;;
16775;SDS011;8505;49.456;8.164;2023-11-22T12:36:30;1.50;;;0.73;;
16775;SDS011;8505;49.456;8.164;2023-11-22T12:38:59;1.58;;;1.08;;
16775;SDS011;8505;49.456;8.164;2023-11-22T12:41:27;0.60;;;0.50;;
16775;SDS011;8505;49.456;8.164;2023-11-22T12:44:02;1.48;;;0.77;;
16775;SDS011;8505;49.456;8.164;2023-11-22T12:49:16;1.80;;;0.67;;
16775;SDS011;8505;49.456;8.164;2023-11-22T12:51:46;0.10;;;0.10;;
16775;SDS011;8505;49.456;8.164;2023-11-22T12:54:14;0.40;;;0.20;;
16775;SDS011;8505;49.456;8.164;2023-11-22T12:56:42;0.55;;;0.55;;
16775;SDS011;8505;49.456;8.164;2023-11-22T12:59:10;1.00;;;0.60;;
16775;SDS011;8505;49.456;8.164;2023-11-22T13:01:38;0.40;;;0.40;;
16775;SDS011;8505;49.456;8.164;2023-11-22T13:04:08;0.20;;;0.20;;
16775;SDS011;8505;49.456;8.164;2023-11-22T13:06:36;0.30;;;0.30;;
16775;SDS011;8505;49.456;8.164;2023-11-22T13:09:05;0.90;;;0.70;;
16775;SDS011;8505;49.456;8.164;2023-11-22T13:11:33;1.00;;;0.70;;
16775;SDS011;8505;49.456;8.164;2023-11-22T13:14:01;0.10;;;0.10;;
16775;SDS011;8505;49.456;8.164;2023-11-22T13:16:29;0.00;;;0.00;;
16775;SDS011;8505;49.456;8.164;2023-11-22T13:18:58;0.15;;;0.15;;
16775;SDS011;8505;49.456;8.164;2023-11-22T13:21:27;1.20;;;0.80;;
16775;SDS011;8505;49.456;8.164;2023-11-22T13:23:55;2.20;;;1.10;;
16775;SDS011;8505;49.456;8.164;2023-11-22T13:26:25;0.40;;;0.40;;
16775;SDS011;8505;49.456;8.164;2023-11-22T13:28:53;1.60;;;1.10;;
16775;SDS011;8505;49.456;8.164;2023-11-22T13:31:21;0.65;;;0.47;;
16775;SDS011;8505;49.456;8.164;2023-11-22T13:33:50;1.00;;;0.10;;
16775;SDS011;8505;49.456;8.164;2023-11-22T13:36:18;0.35;;;0.28;;
16775;SDS011;8505;49.456;8.164;2023-11-22T13:38:47;1.40;;;0.50;;
16775;SDS011;8505;49.456;8.164;2023-11-22T13:41:14;0.20;;;0.20;;
16775;SDS011;8505;49.456;8.164;2023-11-22T13:43:42;2.40;;;0.50;;
16775;SDS011;8505;49.456;8.164;2023-11-22T13:46:12;0.52;;;0.52;;
16775;SDS011;8505;49.456;8.164;2023-11-22T13:48:41;0.40;;;0.33;;
16775;SDS011;8505;49.456;8.164;2023-11-22T13:51:09;0.90;;;0.50;;
16775;SDS011;8505;49.456;8.164;2023-11-22T13:53:37;0.10;;;0.10;;
16775;SDS011;8505;49.456;8.164;2023-11-22T13:56:11;0.70;;;0.60;;
16775;SDS011;8505;49.456;8.164;2023-11-22T13:58:41;0.00;;;0.00;;
16775;SDS011;8505;49.456;8.164;2023-11-22T14:01:09;0.80;;;0.30;;
16775;SDS011;8505;49.456;8.164;2023-11-22T14:03:41;0.50;;;0.40;;
16775;SDS011;8505;49.456;8.164;2023-11-22T14:06:09;0.10;;;0.10;;
16775;SDS011;8505;49.456;8.164;2023-11-22T14:08:39;0.20;;;0.20;;
16775;SDS011;8505;49.456;8.164;2023-11-22T14:11:07;0.00;;;0.00;;
16775;SDS011;8505;49.456;8.164;2023-11-22T14:13:37;0.30;;;0.30;;
16775;SDS011;8505;49.456;8.164;2023-11-22T14:16:06;0.10;;;0.10;;
16775;SDS011;8505;49.456;8.164;2023-11-22T14:18:35;0.75;;;0.35;;
16775;SDS011;8505;49.456;8.164;2023-11-22T14:21:03;0.17;;;0.10;;
16775;SDS011;8505;49.456;8.164;2023-11-22T14:23:31;0.20;;;0.10;;
16775;SDS011;8505;49.456;8.164;2023-11-22T14:25:59;1.80;;;0.70;;
16775;SDS011;8505;49.456;8.164;2023-11-22T14:28:27;0.13;;;0.10;;
16775;SDS011;8505;49.456;8.164;2023-11-22T14:30:57;0.22;;;0.22;;
16775;SDS011;8505;49.456;8.164;2023-11-22T14:33:25;1.30;;;0.70;;
16775;SDS011;8505;49.456;8.164;2023-11-22T14:35:56;0.22;;;0.22;;
16775;SDS011;8505;49.456;8.164;2023-11-22T14:38:25;1.20;;;0.90;;
16775;SDS011;8505;49.456;8.164;2023-11-22T14:40:53;0.10;;;0.10;;
16775;SDS011;8505;49.456;8.164;2023-11-22T14:43:20;0.00;;;0.00;;
16775;SDS011;8505;49.456;8.164;2023-11-22T14:45:49;2.90;;;1.20;;
16775;SDS011;8505;49.456;8.164;2023-11-22T14:48:18;0.70;;;0.70;;
16775;SDS011;8505;49.456;8.164;2023-11-22T14:50:46;0.28;;;0.28;;
16775;SDS011;8505;49.456;8.164;2023-11-22T14:53:14;1.67;;;0.47;;
16775;SDS011;8505;49.456;8.164;2023-11-22T14:55:43;0.50;;;0.47;;
16775;SDS011;8505;49.456;8.164;2023-11-22T14:58:11;0.20;;;0.20;;
16775;SDS011;8505;49.456;8.164;2023-11-22T15:00:38;0.20;;;0.20;;
16775;SDS011;8505;49.456;8.164;2023-11-22T15:03:07;0.57;;;0.38;;
16775;SDS011;8505;49.456;8.164;2023-11-22T15:05:36;0.00;;;0.00;;
16775;SDS011;8505;49.456;8.164;2023-11-22T15:08:04;0.15;;;0.15;;
16775;SDS011;8505;49.456;8.164;2023-11-22T15:10:34;0.00;;;0.00;;
16775;SDS011;8505;49.456;8.164;2023-11-22T15:13:02;0.05;;;0.05;;